Sycamore, Georgia
Current Conditions -  °F | °C
As of 11:10 PM on Tuesday 21 Oct 2014 (Local Time) from KTMA Reporting Station
Clear Clear  
Wind Chill: 15°   Ceiling: Unl
Heat Index: 15°   Visibility: 10mi
Dew Point: 13°   Wind: 0mph
Humidity: 86%   Direction: NA
Pressure: 30"   Gusts: NA
Location:  31.67°N, 83.64°W
Report Text: KTMA 220310Z AUTO 00000KT 10SM CLR 15/13 A3000 RMK AO2 T01510127
Loading
Personal Weather Stations






























Interactive Weather Map
Tropical Storm Tracking
New forecast layout! Learn more

10-Day Weather Forecast

Advertisements
Track Severe Weather on mobile